TimeCST,TemperatureF,Dew PointF,Humidity,Sea Level PressureIn,VisibilityMPH,Wind Direction,Wind SpeedMPH,Gust SpeedMPH,PrecipitationIn,Events,Conditions,WindDirDegrees,DateUTC
12:54 AM,37.9,33.1,83,30.43,10.0,North,5.8,-,N/A,,Clear,350,2012-11-13 06:54:00
1:54 AM,39.0,33.1,79,30.44,10.0,NNW,5.8,-,N/A,,Clear,330,2012-11-13 07:54:00
2:54 AM,36.0,30.9,82,30.45,10.0,NNW,5.8,-,N/A,,Clear,340,2012-11-13 08:54:00
3:54 AM,36.0,30.9,82,30.45,10.0,NNW,3.5,-,N/A,,Clear,340,2012-11-13 09:54:00
4:54 AM,34.0,30.9,89,30.46,10.0,Calm,Calm,-,N/A,,Clear,0,2012-11-13 10:54:00
5:54 AM,35.1,30.9,85,30.47,10.0,North,4.6,-,N/A,,Clear,360,2012-11-13 11:54:00
6:54 AM,37.0,28.9,73,30.48,10.0,NNE,4.6,-,N/A,,Clear,20,2012-11-13 12:54:00
7:54 AM,42.1,28.0,58,30.48,10.0,NNE,10.4,-,N/A,,Clear,20,2012-11-13 13:54:00
8:54 AM,46.0,27.0,47,30.48,10.0,NNE,11.5,-,N/A,,Clear,20,2012-11-13 14:54:00
9:54 AM,50.0,28.0,43,30.48,10.0,NNE,10.4,-,N/A,,Clear,20,2012-11-13 15:54:00
10:54 AM,51.1,30.0,44,30.46,10.0,North,11.5,-,N/A,,Clear,360,2012-11-13 16:54:00
11:54 AM,53.1,30.0,41,30.42,10.0,North,13.8,-,N/A,,Clear,350,2012-11-13 17:54:00
12:54 PM,55.0,28.0,35,30.38,10.0,North,15.0,-,N/A,,Clear,360,2012-11-13 18:54:00
1:54 PM,55.9,28.0,34,30.35,10.0,NNE,13.8,20.7,N/A,,Clear,20,2012-11-13 19:54:00
2:54 PM,57.0,27.0,32,30.34,10.0,North,8.1,-,N/A,,Clear,360,2012-11-13 20:54:00
3:54 PM,55.0,27.0,34,30.33,10.0,NNE,10.4,-,N/A,,Clear,20,2012-11-13 21:54:00
4:54 PM,50.0,28.9,44,30.33,10.0,North,5.8,-,N/A,,Clear,10,2012-11-13 22:54:00
5:54 PM,48.0,30.0,50,30.34,10.0,NNW,5.8,-,N/A,,Clear,340,2012-11-13 23:54:00
6:54 PM,46.0,32.0,58,30.35,10.0,North,3.5,-,N/A,,Clear,10,2012-11-14 00:54:00
7:54 PM,46.9,30.0,52,30.37,10.0,NE,4.6,-,N/A,,Clear,40,2012-11-14 01:54:00
8:54 PM,46.0,28.9,51,30.37,10.0,NNE,4.6,-,N/A,,Clear,30,2012-11-14 02:54:00
9:54 PM,44.1,30.9,60,30.35,10.0,NNE,4.6,-,N/A,,Clear,20,2012-11-14 03:54:00
10:54 PM,46.0,28.9,51,30.35,10.0,NNE,6.9,-,N/A,,Clear,30,2012-11-14 04:54:00
11:54 PM,45.0,28.9,53,30.33,10.0,NE,6.9,-,N/A,,Clear,40,2012-11-14 05:54:00